sensor_id;sensor_type;location;lat;lon;timestamp;P1;P2;P0
30713;PMS7003;17465;47.934;33.430;2023-07-20T00:01:55;17.60;16.80;12.60
30713;PMS7003;17465;47.934;33.430;2023-07-20T00:04:25;19.40;18.40;12.80
30713;PMS7003;17465;47.934;33.430;2023-07-20T00:06:56;19.80;18.80;14.00
30713;PMS7003;17465;47.934;33.430;2023-07-20T00:09:26;17.00;16.00;11.00
30713;PMS7003;17465;47.934;33.430;2023-07-20T00:11:57;20.80;20.60;14.80
30713;PMS7003;17465;47.934;33.430;2023-07-20T00:14:27;19.20;19.20;14.20
30713;PMS7003;17465;47.934;33.430;2023-07-20T00:16:57;18.40;16.40;10.60
30713;PMS7003;17465;47.934;33.430;2023-07-20T00:19:28;20.80;20.20;14.00
30713;PMS7003;17465;47.934;33.430;2023-07-20T00:21:58;16.60;16.60;11.60
30713;PMS7003;17465;47.934;33.430;2023-07-20T00:24:30;20.20;19.20;14.80
30713;PMS7003;17465;47.934;33.430;2023-07-20T00:27:36;15.80;15.40;10.40
30713;PMS7003;17465;47.934;33.430;2023-07-20T00:30:22;20.00;17.00;11.00
30713;PMS7003;17465;47.934;33.430;2023-07-20T00:32:57;17.40;16.00;11.60
30713;PMS7003;17465;47.934;33.430;2023-07-20T00:35:28;19.00;18.80;12.60
30713;PMS7003;17465;47.934;33.430;2023-07-20T00:37:58;22.20;19.40;12.80
30713;PMS7003;17465;47.934;33.430;2023-07-20T00:40:34;15.00;15.00;11.80
30713;PMS7003;17465;47.934;33.430;2023-07-20T00:43:07;16.40;14.60;9.40
30713;PMS7003;17465;47.934;33.430;2023-07-20T00:45:39;16.80;16.00;11.80
30713;PMS7003;17465;47.934;33.430;2023-07-20T00:48:10;17.40;15.60;10.60
30713;PMS7003;17465;47.934;33.430;2023-07-20T00:50:42;10.60;10.60;6.40
30713;PMS7003;17465;47.934;33.430;2023-07-20T00:53:14;15.60;14.00;10.00
30713;PMS7003;17465;47.934;33.430;2023-07-20T00:55:45;15.20;14.60;10.40
30713;PMS7003;17465;47.934;33.430;2023-07-20T00:58:18;14.60;14.60;9.80
30713;PMS7003;17465;47.934;33.430;2023-07-20T01:00:49;12.60;12.60;9.20
30713;PMS7003;17465;47.934;33.430;2023-07-20T01:03:23;17.20;15.60;10.20
30713;PMS7003;17465;47.934;33.430;2023-07-20T01:05:57;15.20;14.80;10.20
30713;PMS7003;17465;47.934;33.430;2023-07-20T01:08:32;12.20;12.20;8.40
30713;PMS7003;17465;47.934;33.430;2023-07-20T01:14:00;26.60;26.60;17.40
30713;PMS7003;17465;47.934;33.430;2023-07-20T01:16:31;36.00;32.25;20.50
30713;PMS7003;17465;47.934;33.430;2023-07-20T01:19:03;19.60;18.60;13.00
30713;PMS7003;17465;47.934;33.430;2023-07-20T01:21:39;14.60;13.80;10.40
30713;PMS7003;17465;47.934;33.430;2023-07-20T01:27:51;16.20;16.00;11.20
30713;PMS7003;17465;47.934;33.430;2023-07-20T01:30:34;15.40;15.40;10.80
30713;PMS7003;17465;47.934;33.430;2023-07-20T01:33:17;16.20;15.60;10.60
30713;PMS7003;17465;47.934;33.430;2023-07-20T01:35:52;13.00;11.40;7.60
30713;PMS7003;17465;47.934;33.430;2023-07-20T01:38:22;14.20;13.00;10.00
30713;PMS7003;17465;47.934;33.430;2023-07-20T01:40:53;14.60;14.60;9.20
30713;PMS7003;17465;47.934;33.430;2023-07-20T01:43:25;11.20;11.20;7.20
30713;PMS7003;17465;47.934;33.430;2023-07-20T01:45:55;15.20;14.20;8.60
30713;PMS7003;17465;47.934;33.430;2023-07-20T01:48:25;13.40;13.40;9.80
30713;PMS7003;17465;47.934;33.430;2023-07-20T01:51:00;17.80;17.00;10.80
30713;PMS7003;17465;47.934;33.430;2023-07-20T01:53:28;19.00;18.40;13.00
30713;PMS7003;17465;47.934;33.430;2023-07-20T01:56:00;18.80;18.20;11.60
30713;PMS7003;17465;47.934;33.430;2023-07-20T01:58:30;15.20;15.20;6.80
30713;PMS7003;17465;47.934;33.430;2023-07-20T02:01:13;23.40;22.20;15.20
30713;PMS7003;17465;47.934;33.430;2023-07-20T02:03:43;20.80;20.80;12.80
30713;PMS7003;17465;47.934;33.430;2023-07-20T02:06:13;21.20;20.20;15.20
30713;PMS7003;17465;47.934;33.430;2023-07-20T02:08:44;23.80;22.60;14.80
30713;PMS7003;17465;47.934;33.430;2023-07-20T02:11:15;23.00;21.40;13.00
30713;PMS7003;17465;47.934;33.430;2023-07-20T02:13:45;25.40;24.20;16.20
30713;PMS7003;17465;47.934;33.430;2023-07-20T02:16:15;28.00;27.80;20.40
30713;PMS7003;17465;47.934;33.430;2023-07-20T02:18:46;24.25;24.00;14.25
30713;PMS7003;17465;47.934;33.430;2023-07-20T02:21:16;40.25;34.50;23.50
30713;PMS7003;17465;47.934;33.430;2023-07-20T02:23:47;63.00;51.00;36.25
30713;PMS7003;17465;47.934;33.430;2023-07-20T02:26:18;82.00;80.75;52.00
30713;PMS7003;17465;47.934;33.430;2023-07-20T02:28:48;67.00;52.00;35.50
30713;PMS7003;17465;47.934;33.430;2023-07-20T02:31:19;51.50;43.00;28.50
30713;PMS7003;17465;47.934;33.430;2023-07-20T02:33:49;69.00;58.00;36.25
30713;PMS7003;17465;47.934;33.430;2023-07-20T02:36:19;49.00;41.75;28.50
30713;PMS7003;17465;47.934;33.430;2023-07-20T02:38:50;54.00;45.00;30.25
30713;PMS7003;17465;47.934;33.430;2023-07-20T02:41:21;49.50;41.75;27.00
30713;PMS7003;17465;47.934;33.430;2023-07-20T02:43:51;46.50;37.25;25.25
30713;PMS7003;17465;47.934;33.430;2023-07-20T02:46:22;33.00;31.00;21.50
30713;PMS7003;17465;47.934;33.430;2023-07-20T02:48:53;37.75;34.25;23.00
30713;PMS7003;17465;47.934;33.430;2023-07-20T02:51:24;32.00;28.80;19.00
30713;PMS7003;17465;47.934;33.430;2023-07-20T02:53:54;31.00;27.40;18.40
30713;PMS7003;17465;47.934;33.430;2023-07-20T02:56:24;24.20;24.20;16.80
30713;PMS7003;17465;47.934;33.430;2023-07-20T02:58:55;26.80;25.20;18.20
30713;PMS7003;17465;47.934;33.430;2023-07-20T03:01:25;27.40;27.40;19.00
30713;PMS7003;17465;47.934;33.430;2023-07-20T03:03:56;32.50;30.50;20.50
30713;PMS7003;17465;47.934;33.430;2023-07-20T03:06:26;38.50;32.75;22.00
30713;PMS7003;17465;47.934;33.430;2023-07-20T03:08:57;33.25;29.00;19.25
30713;PMS7003;17465;47.934;33.430;2023-07-20T03:11:27;29.75;28.25;19.25
30713;PMS7003;17465;47.934;33.430;2023-07-20T03:13:58;31.75;30.25;20.25
30713;PMS7003;17465;47.934;33.430;2023-07-20T03:16:29;34.50;31.50;21.75
30713;PMS7003;17465;47.934;33.430;2023-07-20T03:18:59;31.25;29.75;20.50
30713;PMS7003;17465;47.934;33.430;2023-07-20T03:21:30;28.75;28.50;19.75
30713;PMS7003;17465;47.934;33.430;2023-07-20T03:24:00;38.50;34.00;23.00
30713;PMS7003;17465;47.934;33.430;2023-07-20T03:26:31;47.00;39.75;27.25
30713;PMS7003;17465;47.934;33.430;2023-07-20T03:29:01;53.75;44.25;29.25
30713;PMS7003;17465;47.934;33.430;2023-07-20T03:31:33;54.50;45.75;30.25
30713;PMS7003;17465;47.934;33.430;2023-07-20T03:34:04;50.25;42.00;27.00
30713;PMS7003;17465;47.934;33.430;2023-07-20T03:36:34;49.75;40.50;26.25
30713;PMS7003;17465;47.934;33.430;2023-07-20T03:39:05;54.00;44.50;28.50
30713;PMS7003;17465;47.934;33.430;2023-07-20T03:41:36;46.75;40.00;26.25
30713;PMS7003;17465;47.934;33.430;2023-07-20T03:44:06;51.00;42.50;28.75
30713;PMS7003;17465;47.934;33.430;2023-07-20T03:46:37;48.00;40.00;27.00
30713;PMS7003;17465;47.934;33.430;2023-07-20T03:49:07;45.75;38.00;25.25
30713;PMS7003;17465;47.934;33.430;2023-07-20T03:51:40;47.75;39.75;26.00
30713;PMS7003;17465;47.934;33.430;2023-07-20T03:54:11;45.50;39.25;25.00
30713;PMS7003;17465;47.934;33.430;2023-07-20T03:56:41;44.00;37.50;26.50
30713;PMS7003;17465;47.934;33.430;2023-07-20T03:59:12;44.75;37.00;25.50
30713;PMS7003;17465;47.934;33.430;2023-07-20T04:01:42;40.50;35.75;24.50
30713;PMS7003;17465;47.934;33.430;2023-07-20T04:04:13;38.75;34.75;23.00
30713;PMS7003;17465;47.934;33.430;2023-07-20T04:06:46;32.50;31.00;20.50
30713;PMS7003;17465;47.934;33.430;2023-07-20T04:09:17;38.75;33.25;22.00
30713;PMS7003;17465;47.934;33.430;2023-07-20T04:11:47;39.75;33.00;22.25
30713;PMS7003;17465;47.934;33.430;2023-07-20T04:14:17;38.50;33.50;22.00
30713;PMS7003;17465;47.934;33.430;2023-07-20T04:19:48;30.25;29.50;21.00
30713;PMS7003;17465;47.934;33.430;2023-07-20T04:22:19;32.20;30.20;21.00
30713;PMS7003;17465;47.934;33.430;2023-07-20T04:24:49;37.00;31.25;22.50
30713;PMS7003;17465;47.934;33.430;2023-07-20T04:27:19;33.75;30.25;21.00
30713;PMS7003;17465;47.934;33.430;2023-07-20T04:29:49;31.75;30.25;21.00
30713;PMS7003;17465;47.934;33.430;2023-07-20T04:32:20;32.75;30.25;21.75
30713;PMS7003;17465;47.934;33.430;2023-07-20T04:34:51;33.25;30.50;19.50
30713;PMS7003;17465;47.934;33.430;2023-07-20T04:37:21;39.25;32.50;22.00
30713;PMS7003;17465;47.934;33.430;2023-07-20T04:39:52;34.00;31.50;22.25
30713;PMS7003;17465;47.934;33.430;2023-07-20T04:42:23;30.20;28.40;20.60
30713;PMS7003;17465;47.934;33.430;2023-07-20T04:44:53;36.20;31.80;21.00
30713;PMS7003;17465;47.934;33.430;2023-07-20T04:47:24;33.00;31.00;21.00
30713;PMS7003;17465;47.934;33.430;2023-07-20T04:49:56;21.60;20.60;12.60
30713;PMS7003;17465;47.934;33.430;2023-07-20T04:52:28;29.20;28.60;20.60
30713;PMS7003;17465;47.934;33.430;2023-07-20T04:55:01;26.60;26.60;18.60
30713;PMS7003;17465;47.934;33.430;2023-07-20T04:57:32;24.80;24.40;13.60
30713;PMS7003;17465;47.934;33.430;2023-07-20T05:00:02;25.80;25.20;18.00
30713;PMS7003;17465;47.934;33.430;2023-07-20T05:02:37;27.00;27.00;19.20
30713;PMS7003;17465;47.934;33.430;2023-07-20T05:05:08;22.40;22.40;14.80
30713;PMS7003;17465;47.934;33.430;2023-07-20T05:07:38;27.60;26.00;17.00
30713;PMS7003;17465;47.934;33.430;2023-07-20T05:10:09;28.60;26.80;17.40
30713;PMS7003;17465;47.934;33.430;2023-07-20T05:12:39;33.60;28.40;18.60
30713;PMS7003;17465;47.934;33.430;2023-07-20T05:15:10;28.40;28.00;18.80
30713;PMS7003;17465;47.934;33.430;2023-07-20T05:17:40;31.00;29.80;20.00
30713;PMS7003;17465;47.934;33.430;2023-07-20T05:20:10;27.00;26.00;17.40
30713;PMS7003;17465;47.934;33.430;2023-07-20T05:22:42;28.20;25.60;18.00
30713;PMS7003;17465;47.934;33.430;2023-07-20T05:25:12;27.60;26.00;18.40
30713;PMS7003;17465;47.934;33.430;2023-07-20T05:27:43;26.20;25.20;17.60
30713;PMS7003;17465;47.934;33.430;2023-07-20T05:30:13;25.60;24.20;17.40
30713;PMS7003;17465;47.934;33.430;2023-07-20T05:32:44;25.00;25.00;17.60
30713;PMS7003;17465;47.934;33.430;2023-07-20T05:35:15;25.80;24.40;18.20
30713;PMS7003;17465;47.934;33.430;2023-07-20T05:37:46;23.40;23.40;18.80
30713;PMS7003;17465;47.934;33.430;2023-07-20T05:40:17;27.00;26.20;18.00
30713;PMS7003;17465;47.934;33.430;2023-07-20T05:42:48;26.60;26.00;17.20
30713;PMS7003;17465;47.934;33.430;2023-07-20T05:45:19;23.80;23.60;18.00
30713;PMS7003;17465;47.934;33.430;2023-07-20T05:47:49;25.00;24.40;18.20
30713;PMS7003;17465;47.934;33.430;2023-07-20T05:50:20;25.00;25.00;17.00
30713;PMS7003;17465;47.934;33.430;2023-07-20T05:52:56;25.00;24.00;18.20
30713;PMS7003;17465;47.934;33.430;2023-07-20T05:55:22;25.60;25.60;19.00
30713;PMS7003;17465;47.934;33.430;2023-07-20T05:57:52;23.80;22.80;15.80
30713;PMS7003;17465;47.934;33.430;2023-07-20T06:00:23;24.80;24.20;18.00
30713;PMS7003;17465;47.934;33.430;2023-07-20T06:02:53;27.20;26.00;19.00
30713;PMS7003;17465;47.934;33.430;2023-07-20T06:05:24;27.80;26.40;19.00
30713;PMS7003;17465;47.934;33.430;2023-07-20T06:07:57;27.00;27.00;18.80
30713;PMS7003;17465;47.934;33.430;2023-07-20T06:10:28;27.40;26.20;18.80
30713;PMS7003;17465;47.934;33.430;2023-07-20T06:12:58;22.60;22.60;16.80
30713;PMS7003;17465;47.934;33.430;2023-07-20T06:15:36;23.00;23.00;17.40
30713;PMS7003;17465;47.934;33.430;2023-07-20T06:18:02;25.80;24.60;16.40
30713;PMS7003;17465;47.934;33.430;2023-07-20T06:20:33;23.40;23.40;18.80
30713;PMS7003;17465;47.934;33.430;2023-07-20T06:23:03;22.40;22.20;15.80
30713;PMS7003;17465;47.934;33.430;2023-07-20T06:25:34;25.80;24.40;18.40
30713;PMS7003;17465;47.934;33.430;2023-07-20T06:28:05;26.60;26.00;18.60
30713;PMS7003;17465;47.934;33.430;2023-07-20T06:30:36;26.00;26.00;18.80
30713;PMS7003;17465;47.934;33.430;2023-07-20T06:33:07;28.40;27.20;19.00
30713;PMS7003;17465;47.934;33.430;2023-07-20T06:35:37;27.00;25.20;18.00
30713;PMS7003;17465;47.934;33.430;2023-07-20T06:38:11;26.80;26.60;20.40
30713;PMS7003;17465;47.934;33.430;2023-07-20T06:40:43;28.20;26.80;20.00
30713;PMS7003;17465;47.934;33.430;2023-07-20T06:43:15;26.00;25.80;19.20
30713;PMS7003;17465;47.934;33.430;2023-07-20T06:45:51;32.60;28.60;20.40
30713;PMS7003;17465;47.934;33.430;2023-07-20T06:48:24;30.00;27.80;19.80
30713;PMS7003;17465;47.934;33.430;2023-07-20T06:50:55;33.20;29.80;20.00
30713;PMS7003;17465;47.934;33.430;2023-07-20T06:53:25;28.20;27.80;19.20
30713;PMS7003;17465;47.934;33.430;2023-07-20T06:55:56;30.80;29.20;20.60
30713;PMS7003;17465;47.934;33.430;2023-07-20T06:58:26;32.80;30.80;22.00
30713;PMS7003;17465;47.934;33.430;2023-07-20T07:00:57;23.00;21.80;17.20
30713;PMS7003;17465;47.934;33.430;2023-07-20T07:03:27;27.20;26.60;17.20
30713;PMS7003;17465;47.934;33.430;2023-07-20T07:05:57;33.00;30.60;21.00
30713;PMS7003;17465;47.934;33.430;2023-07-20T07:08:29;38.00;31.40;21.60
30713;PMS7003;17465;47.934;33.430;2023-07-20T07:10:59;33.60;30.40;21.60
30713;PMS7003;17465;47.934;33.430;2023-07-20T07:13:29;43.25;36.25;25.50
30713;PMS7003;17465;47.934;33.430;2023-07-20T07:16:00;45.75;39.50;26.00
30713;PMS7003;17465;47.934;33.430;2023-07-20T07:18:31;44.50;38.25;25.50
30713;PMS7003;17465;47.934;33.430;2023-07-20T07:21:01;47.50;39.75;26.25
30713;PMS7003;17465;47.934;33.430;2023-07-20T07:23:32;42.50;36.50;25.00
30713;PMS7003;17465;47.934;33.430;2023-07-20T07:26:02;42.00;36.00;25.25
30713;PMS7003;17465;47.934;33.430;2023-07-20T07:28:33;39.25;34.25;23.00
30713;PMS7003;17465;47.934;33.430;2023-07-20T07:31:06;44.25;37.00;25.50
30713;PMS7003;17465;47.934;33.430;2023-07-20T07:33:38;43.75;36.25;23.25
30713;PMS7003;17465;47.934;33.430;2023-07-20T07:36:08;43.75;37.00;23.75
30713;PMS7003;17465;47.934;33.430;2023-07-20T07:38:39;44.25;38.00;25.00
30713;PMS7003;17465;47.934;33.430;2023-07-20T07:41:10;45.25;38.00;25.75
30713;PMS7003;17465;47.934;33.430;2023-07-20T07:43:41;43.50;35.00;22.50
30713;PMS7003;17465;47.934;33.430;2023-07-20T07:46:11;47.50;39.25;25.75
30713;PMS7003;17465;47.934;33.430;2023-07-20T07:48:42;38.75;33.00;23.00
30713;PMS7003;17465;47.934;33.430;2023-07-20T07:51:12;45.00;37.25;24.25
30713;PMS7003;17465;47.934;33.430;2023-07-20T07:53:43;47.25;38.50;25.75
30713;PMS7003;17465;47.934;33.430;2023-07-20T07:56:13;45.75;37.75;25.25
30713;PMS7003;17465;47.934;33.430;2023-07-20T07:58:44;43.75;37.75;24.25
30713;PMS7003;17465;47.934;33.430;2023-07-20T08:01:14;46.00;37.00;24.50
30713;PMS7003;17465;47.934;33.430;2023-07-20T08:03:45;46.00;38.25;25.50
30713;PMS7003;17465;47.934;33.430;2023-07-20T08:06:15;49.00;41.00;27.25
30713;PMS7003;17465;47.934;33.430;2023-07-20T08:08:46;45.25;38.00;25.25
30713;PMS7003;17465;47.934;33.430;2023-07-20T08:11:16;46.75;39.25;26.25
30713;PMS7003;17465;47.934;33.430;2023-07-20T08:13:47;45.75;39.00;24.75
30713;PMS7003;17465;47.934;33.430;2023-07-20T08:16:17;45.00;37.25;24.75
30713;PMS7003;17465;47.934;33.430;2023-07-20T08:18:50;45.25;38.00;25.50
30713;PMS7003;17465;47.934;33.430;2023-07-20T08:21:19;45.75;38.00;26.25
30713;PMS7003;17465;47.934;33.430;2023-07-20T08:23:50;46.00;39.50;26.25
30713;PMS7003;17465;47.934;33.430;2023-07-20T08:26:20;45.75;39.00;25.75
30713;PMS7003;17465;47.934;33.430;2023-07-20T08:28:52;45.50;38.50;24.75
30713;PMS7003;17465;47.934;33.430;2023-07-20T08:31:23;50.50;41.00;26.25
30713;PMS7003;17465;47.934;33.430;2023-07-20T08:33:53;46.25;37.75;26.00
30713;PMS7003;17465;47.934;33.430;2023-07-20T08:36:24;43.75;38.00;24.25
30713;PMS7003;17465;47.934;33.430;2023-07-20T08:38:54;47.50;39.75;25.25
30713;PMS7003;17465;47.934;33.430;2023-07-20T08:41:25;49.00;41.75;26.00
30713;PMS7003;17465;47.934;33.430;2023-07-20T08:43:55;54.25;45.50;28.00
30713;PMS7003;17465;47.934;33.430;2023-07-20T08:46:27;56.50;46.25;29.50
30713;PMS7003;17465;47.934;33.430;2023-07-20T08:48:58;62.25;50.25;33.00
30713;PMS7003;17465;47.934;33.430;2023-07-20T08:51:31;63.25;51.25;32.00
30713;PMS7003;17465;47.934;33.430;2023-07-20T08:54:02;72.75;66.50;39.75
30713;PMS7003;17465;47.934;33.430;2023-07-20T08:56:33;67.00;58.00;34.50
30713;PMS7003;17465;47.934;33.430;2023-07-20T08:59:04;53.00;43.00;28.00
30713;PMS7003;17465;47.934;33.430;2023-07-20T09:01:43;50.00;41.75;26.00
30713;PMS7003;17465;47.934;33.430;2023-07-20T09:04:15;50.00;41.50;26.00
30713;PMS7003;17465;47.934;33.430;2023-07-20T09:06:46;42.50;37.00;26.00
30713;PMS7003;17465;47.934;33.430;2023-07-20T09:09:18;47.00;39.50;25.75
30713;PMS7003;17465;47.934;33.430;2023-07-20T09:11:49;45.75;37.75;25.25
30713;PMS7003;17465;47.934;33.430;2023-07-20T09:14:20;46.75;39.50;25.25
30713;PMS7003;17465;47.934;33.430;2023-07-20T09:16:54;49.50;40.00;26.25
30713;PMS7003;17465;47.934;33.430;2023-07-20T09:19:25;53.00;43.00;29.75
30713;PMS7003;17465;47.934;33.430;2023-07-20T09:21:55;52.00;43.00;29.50
30713;PMS7003;17465;47.934;33.430;2023-07-20T09:24:28;54.25;45.25;31.00
30713;PMS7003;17465;47.934;33.430;2023-07-20T09:26:58;49.75;41.00;30.00
30713;PMS7003;17465;47.934;33.430;2023-07-20T09:29:32;62.75;51.75;34.75
30713;PMS7003;17465;47.934;33.430;2023-07-20T09:32:03;61.50;50.00;33.75
30713;PMS7003;17465;47.934;33.430;2023-07-20T09:34:34;53.50;43.00;27.50
30713;PMS7003;17465;47.934;33.430;2023-07-20T09:37:06;56.75;46.25;31.00
30713;PMS7003;17465;47.934;33.430;2023-07-20T09:39:43;58.00;47.00;30.00
30713;PMS7003;17465;47.934;33.430;2023-07-20T09:42:16;53.25;43.50;29.25
30713;PMS7003;17465;47.934;33.430;2023-07-20T09:44:48;52.50;43.25;28.75
30713;PMS7003;17465;47.934;33.430;2023-07-20T09:47:23;53.50;44.00;30.00
30713;PMS7003;17465;47.934;33.430;2023-07-20T09:49:59;52.00;43.00;29.00
30713;PMS7003;17465;47.934;33.430;2023-07-20T09:52:32;47.00;38.50;26.00
30713;PMS7003;17465;47.934;33.430;2023-07-20T09:55:06;51.00;42.00;28.50
30713;PMS7003;17465;47.934;33.430;2023-07-20T09:57:39;54.75;45.25;29.00
30713;PMS7003;17465;47.934;33.430;2023-07-20T10:00:15;55.50;45.75;29.75
30713;PMS7003;17465;47.934;33.430;2023-07-20T10:02:48;55.25;44.50;29.00
30713;PMS7003;17465;47.934;33.430;2023-07-20T10:05:19;50.00;42.50;28.50
30713;PMS7003;17465;47.934;33.430;2023-07-20T10:07:51;51.25;41.00;28.00
30713;PMS7003;17465;47.934;33.430;2023-07-20T10:10:25;48.25;40.75;26.00
30713;PMS7003;17465;47.934;33.430;2023-07-20T10:12:56;49.75;41.25;26.75
30713;PMS7003;17465;47.934;33.430;2023-07-20T10:15:40;45.50;38.75;26.00
30713;PMS7003;17465;47.934;33.430;2023-07-20T10:18:30;47.75;40.50;26.25
30713;PMS7003;17465;47.934;33.430;2023-07-20T10:21:02;43.50;37.75;25.75
30713;PMS7003;17465;47.934;33.430;2023-07-20T10:23:37;48.50;39.00;27.00
30713;PMS7003;17465;47.934;33.430;2023-07-20T10:26:10;42.50;35.75;25.00
30713;PMS7003;17465;47.934;33.430;2023-07-20T10:28:42;40.80;34.60;24.00
30713;PMS7003;17465;47.934;33.430;2023-07-20T10:31:17;42.00;36.00;24.00
30713;PMS7003;17465;47.934;33.430;2023-07-20T10:33:49;43.00;36.75;25.25
30713;PMS7003;17465;47.934;33.430;2023-07-20T10:36:25;44.25;36.75;25.75
30713;PMS7003;17465;47.934;33.430;2023-07-20T10:38:54;44.25;36.50;24.75
30713;PMS7003;17465;47.934;33.430;2023-07-20T10:41:35;40.00;35.00;24.25
30713;PMS7003;17465;47.934;33.430;2023-07-20T10:44:07;42.00;35.50;25.00
30713;PMS7003;17465;47.934;33.430;2023-07-20T10:49:14;39.20;34.00;23.40
30713;PMS7003;17465;47.934;33.430;2023-07-20T10:51:45;43.50;37.00;26.00
30713;PMS7003;17465;47.934;33.430;2023-07-20T10:56:52;40.50;35.50;24.00
30713;PMS7003;17465;47.934;33.430;2023-07-20T11:02:06;45.20;38.00;26.40
30713;PMS7003;17465;47.934;33.430;2023-07-20T11:04:44;44.20;37.20;26.00
30713;PMS7003;17465;47.934;33.430;2023-07-20T11:07:37;42.20;35.60;25.00
30713;PMS7003;17465;47.934;33.430;2023-07-20T11:10:12;39.20;33.60;24.20
30713;PMS7003;17465;47.934;33.430;2023-07-20T11:16:01;40.80;34.80;24.40
30713;PMS7003;17465;47.934;33.430;2023-07-20T11:18:25;38.20;32.80;21.80
30713;PMS7003;17465;47.934;33.430;2023-07-20T11:20:56;40.80;33.80;24.80
30713;PMS7003;17465;47.934;33.430;2023-07-20T11:23:28;34.40;30.60;21.00
30713;PMS7003;17465;47.934;33.430;2023-07-20T11:26:01;36.00;32.20;22.00
30713;PMS7003;17465;47.934;33.430;2023-07-20T11:28:32;36.40;32.40;23.80
30713;PMS7003;17465;47.934;33.430;2023-07-20T11:31:04;31.20;29.60;20.80
30713;PMS7003;17465;47.934;33.430;2023-07-20T11:33:34;32.60;29.00;21.00
30713;PMS7003;17465;47.934;33.430;2023-07-20T11:36:04;32.00;29.20;20.40
30713;PMS7003;17465;47.934;33.430;2023-07-20T11:38:37;34.00;29.80;20.80
30713;PMS7003;17465;47.934;33.430;2023-07-20T11:41:11;36.60;32.40;22.40
30713;PMS7003;17465;47.934;33.430;2023-07-20T11:43:43;34.40;31.20;21.40
30713;PMS7003;17465;47.934;33.430;2023-07-20T11:46:15;34.40;31.40;23.00
30713;PMS7003;17465;47.934;33.430;2023-07-20T11:48:45;28.40;27.60;19.40
30713;PMS7003;17465;47.934;33.430;2023-07-20T11:51:16;34.80;30.20;21.60
30713;PMS7003;17465;47.934;33.430;2023-07-20T11:53:47;34.60;30.20;21.20
30713;PMS7003;17465;47.934;33.430;2023-07-20T11:56:17;33.00;29.80;20.40
30713;PMS7003;17465;47.934;33.430;2023-07-20T11:58:48;29.40;28.40;21.00
30713;PMS7003;17465;47.934;33.430;2023-07-20T12:01:19;31.20;29.40;20.80
30713;PMS7003;17465;47.934;33.430;2023-07-20T12:03:49;29.80;28.60;19.40
30713;PMS7003;17465;47.934;33.430;2023-07-20T12:06:22;30.60;29.00;20.00
30713;PMS7003;17465;47.934;33.430;2023-07-20T12:08:55;31.40;27.60;20.20
30713;PMS7003;17465;47.934;33.430;2023-07-20T12:11:36;32.40;29.40;20.00
30713;PMS7003;17465;47.934;33.430;2023-07-20T12:14:08;31.40;28.60;20.60
30713;PMS7003;17465;47.934;33.430;2023-07-20T12:16:44;31.60;28.40;19.20
30713;PMS7003;17465;47.934;33.430;2023-07-20T12:19:17;33.40;31.40;21.40
30713;PMS7003;17465;47.934;33.430;2023-07-20T12:21:48;33.80;31.80;21.20
30713;PMS7003;17465;47.934;33.430;2023-07-20T12:24:18;44.40;37.00;24.80
30713;PMS7003;17465;47.934;33.430;2023-07-20T12:26:48;32.40;28.60;20.00
30713;PMS7003;17465;47.934;33.430;2023-07-20T12:29:21;35.60;32.00;21.00
30713;PMS7003;17465;47.934;33.430;2023-07-20T12:31:51;41.20;34.00;22.60
30713;PMS7003;17465;47.934;33.430;2023-07-20T12:34:21;40.20;35.20;24.20
30713;PMS7003;17465;47.934;33.430;2023-07-20T12:36:52;41.20;36.00;25.20
30713;PMS7003;17465;47.934;33.430;2023-07-20T12:39:23;43.20;36.20;25.20
30713;PMS7003;17465;47.934;33.430;2023-07-20T12:41:53;36.40;32.80;23.00
30713;PMS7003;17465;47.934;33.430;2023-07-20T12:44:24;41.00;35.20;24.00
30713;PMS7003;17465;47.934;33.430;2023-07-20T12:46:55;38.00;33.00;23.00
30713;PMS7003;17465;47.934;33.430;2023-07-20T12:49:25;39.60;34.20;23.60
30713;PMS7003;17465;47.934;33.430;2023-07-20T12:51:57;36.20;32.20;22.80
30713;PMS7003;17465;47.934;33.430;2023-07-20T12:54:27;30.00;27.60;19.80
30713;PMS7003;17465;47.934;33.430;2023-07-20T12:57:00;27.40;26.20;18.20
30713;PMS7003;17465;47.934;33.430;2023-07-20T12:59:32;27.80;27.00;20.00
30713;PMS7003;17465;47.934;33.430;2023-07-20T13:02:02;28.80;27.00;18.40
30713;PMS7003;17465;47.934;33.430;2023-07-20T13:04:33;28.40;27.40;19.60
30713;PMS7003;17465;47.934;33.430;2023-07-20T13:07:07;29.80;28.60;19.40
30713;PMS7003;17465;47.934;33.430;2023-07-20T13:09:40;28.80;26.80;18.00
30713;PMS7003;17465;47.934;33.430;2023-07-20T13:12:11;26.80;25.60;18.00
30713;PMS7003;17465;47.934;33.430;2023-07-20T13:14:41;23.20;22.60;15.20
30713;PMS7003;17465;47.934;33.430;2023-07-20T13:17:12;26.60;24.40;17.80
30713;PMS7003;17465;47.934;33.430;2023-07-20T13:19:43;23.40;23.00;16.40
30713;PMS7003;17465;47.934;33.430;2023-07-20T13:22:13;29.00;28.20;19.60
30713;PMS7003;17465;47.934;33.430;2023-07-20T13:24:44;26.40;25.60;17.20
30713;PMS7003;17465;47.934;33.430;2023-07-20T13:27:16;30.60;28.40;18.80
30713;PMS7003;17465;47.934;33.430;2023-07-20T13:29:48;10.80;9.20;2.00
30713;PMS7003;17465;47.934;33.430;2023-07-20T13:32:18;25.60;25.60;18.60
30713;PMS7003;17465;47.934;33.430;2023-07-20T13:34:49;28.00;26.60;18.00
30713;PMS7003;17465;47.934;33.430;2023-07-20T13:37:21;19.00;17.60;11.60
30713;PMS7003;17465;47.934;33.430;2023-07-20T13:39:51;23.40;22.40;15.80
30713;PMS7003;17465;47.934;33.430;2023-07-20T13:42:22;21.60;21.60;17.40
30713;PMS7003;17465;47.934;33.430;2023-07-20T13:44:53;25.40;25.40;15.20
30713;PMS7003;17465;47.934;33.430;2023-07-20T13:47:25;19.40;19.00;14.20
30713;PMS7003;17465;47.934;33.430;2023-07-20T13:49:56;19.00;19.00;13.60
30713;PMS7003;17465;47.934;33.430;2023-07-20T13:52:32;19.80;19.20;14.40
30713;PMS7003;17465;47.934;33.430;2023-07-20T13:55:04;28.20;27.40;19.20
30713;PMS7003;17465;47.934;33.430;2023-07-20T13:57:37;23.40;23.20;17.40
30713;PMS7003;17465;47.934;33.430;2023-07-20T14:00:08;19.00;17.80;14.20
30713;PMS7003;17465;47.934;33.430;2023-07-20T14:02:40;19.60;19.20;15.40
30713;PMS7003;17465;47.934;33.430;2023-07-20T14:05:12;30.40;28.20;20.60
30713;PMS7003;17465;47.934;33.430;2023-07-20T14:07:45;28.20;26.20;18.60
30713;PMS7003;17465;47.934;33.430;2023-07-20T14:10:18;31.60;30.00;20.80
30713;PMS7003;17465;47.934;33.430;2023-07-20T14:12:50;30.00;27.60;19.60
30713;PMS7003;17465;47.934;33.430;2023-07-20T14:15:21;39.20;32.20;23.20
30713;PMS7003;17465;47.934;33.430;2023-07-20T14:17:52;33.00;30.20;20.00
30713;PMS7003;17465;47.934;33.430;2023-07-20T14:20:22;27.60;27.20;19.80